trustedproxies.com alexa rank chart, trustedproxies.com alexa rank daily changes

trustedproxies.com alexa rank chart, trustedproxies.com alexa rank daily changes

trustedproxies.com
Actual rank:
767 353

RANK HISTORY

Date Rank Diff
2017/01/20 767 353 -29 154
2017/01/19 796 507 -60 195
2017/01/18 856 702 +85 457
2017/01/17 771 245 +14 208
2017/01/16 757 037 +51 322
2017/01/15 705 715 +22 880
2017/01/14 682 835 +3 373
2017/01/13 679 462 +19 638
2017/01/12 659 824 +15 897
2017/01/11 643 927 -38 159
2017/01/10 682 086 +3 605
2017/01/09 678 481 -29 742
2017/01/08 708 223 +35 936
2017/01/07 672 287 +11 095
2017/01/06 661 192 -9 632
2017/01/05 670 824 +21 085
2017/01/04 649 739 +14 572
2017/01/03 635 167 -24 552
2017/01/02 659 719 +9 507
2017/01/01 650 212 +15 086
2016/12/31 635 126 -26 072
2016/12/30 661 198 +14 545
2016/12/29 646 653 -5 194
2016/12/28 651 847 +18 679
2016/12/27 633 168 +10 150
2016/12/26 623 018 -4 843
2016/12/25 627 861 +10 911
2016/12/24 616 950 +2 360
2016/12/23 614 590 -20 144
2016/12/22 634 734 -222
2016/12/21 634 956 +1 293
2016/12/20 633 663 -3 624
2016/12/19 637 287 -8 563
2016/12/18 645 850 -46 243
2016/12/17 692 093 -29 341
2016/12/16 721 434 -33 756
2016/12/15 755 190 -43 499
2016/12/14 798 689 -14 256
2016/12/13 812 945 -14 591
2016/12/12 827 536 -1 962
2016/12/11 829 498 +51 747
2016/12/10 777 751 +28 929
2016/12/09 748 822 +27 175
2016/12/08 721 647 -58 920
2016/12/07 780 567 -10 181
2016/12/06 790 748 +8 567
2016/12/05 782 181 +2 195
2016/12/04 779 986 +34 151
2016/12/02 745 835 +23 341
2016/12/01 722 494 -16 582
2016/11/30 739 076 +20 309
2016/11/29 718 767 +51 505
2016/11/28 667 262 -34 671
2016/11/27 701 933 +35 997
2016/11/26 665 936 +50 743
2016/11/25 615 193 +42
2016/11/24 615 151 +56 467
2016/11/23 558 684

WIDGET FOR YOUR SITE

DOMAINS WITH THE NEAREST RANK

Domain Rank
avjo.biz 767 348
bernhard-walker.de 767 349
kenkaliike.fi 767 350
stripping-moms.com 767 351
mobileasiantube.net 767 352
trustedproxies.com 767 353
mobilmama.site 767 354
esvector.com 767 355
neobuxlatino.com 767 356
metal.it 767 357
teenstarsmagazine.com 767 358

DOMAINS WITH THE NEAREST RANK BY TLD .com

Domain Rank
compositesmanufacturingmagazine.com 767 342
spandexguys.com 767 343
isokineticsinc.com 767 345
123dialogues.com 767 346
stripping-moms.com 767 351
trustedproxies.com 767 353
esvector.com 767 355
neobuxlatino.com 767 356
teenstarsmagazine.com 767 358
thetshirtcollection.com 767 359
amoena.com 767 367